Time;durP1;ratioP1;P1;durP2;ratioP2;P2;SDS_P1;SDS_P2;PMS_P1;PMS_P2;Temp;Humidity;BMP_temperature;BMP_pressure;BME280_temperature;BME280_humidity;BME280_pressure;Samples;Min_cycle;Max_cycle;Signal;HPM_P1;HPM_P2
2022/10/15 00:02:24;;;;;;;11.23;8.40;;;24.30;52.80;;;;;;7678935;22;80948;-56
2022/10/15 00:05:24;;;;;;;13.48;8.20;;;24.30;52.90;;;;;;7681071;22;80763;-55
2022/10/15 00:08:25;;;;;;;10.52;7.97;;;24.30;52.90;;;;;;7676026;22;81823;-56
2022/10/15 00:11:26;;;;;;;9.52;7.05;;;24.30;52.90;;;;;;7681002;22;80047;-57
2022/10/15 00:14:26;;;;;;;8.77;7.45;;;24.30;52.90;;;;;;7680622;22;80894;-55
2022/10/15 00:17:27;;;;;;;12.88;7.50;;;24.30;52.90;;;;;;7681216;22;80737;-57
2022/10/15 00:20:27;;;;;;;8.95;7.30;;;24.30;52.80;;;;;;7676842;22;80512;-55
2022/10/15 00:23:28;;;;;;;10.52;8.45;;;24.30;52.80;;;;;;7678838;22;87676;-56
2022/10/15 00:26:28;;;;;;;9.07;7.38;;;24.30;52.80;;;;;;7679989;22;79926;-55
2022/10/15 00:29:29;;;;;;;11.00;7.95;;;24.30;52.80;;;;;;7679421;22;81556;-54
2022/10/15 00:32:29;;;;;;;8.75;7.50;;;24.30;52.90;;;;;;7677000;22;80179;-55
2022/10/15 00:35:30;;;;;;;10.90;8.57;;;24.30;52.80;;;;;;7676823;22;80292;-56
2022/10/15 00:38:30;;;;;;;9.10;7.75;;;24.30;52.80;;;;;;7681525;22;79989;-52
2022/10/15 00:41:31;;;;;;;9.13;6.97;;;24.30;52.90;;;;;;7678963;22;80332;-55
2022/10/15 00:44:32;;;;;;;15.98;7.18;;;24.30;52.80;;;;;;7681315;22;80149;-55
2022/10/15 00:47:32;;;;;;;8.70;7.28;;;24.30;52.80;;;;;;7679500;22;80253;-51
2022/10/15 00:50:34;;;;;;;9.27;7.68;;;24.30;52.70;;;;;;7679671;22;80769;-55
2022/10/15 00:53:35;;;;;;;10.40;8.07;;;24.30;52.80;;;;;;7677210;22;81640;-56
2022/10/15 00:56:36;;;;;;;12.60;8.05;;;24.30;52.60;;;;;;7678226;22;80256;-54
2022/10/15 00:59:36;;;;;;;11.43;7.20;;;24.30;52.80;;;;;;7674015;22;80566;-54
2022/10/15 01:02:37;;;;;;;9.43;7.32;;;24.30;52.70;;;;;;7658651;22;81623;-58
2022/10/15 01:05:37;;;;;;;12.27;8.75;;;24.30;52.70;;;;;;7641892;22;80828;-54
2022/10/15 01:08:38;;;;;;;9.60;7.60;;;24.30;52.70;;;;;;7615147;22;82418;-54
2022/10/15 01:11:42;;;;;;;10.20;7.40;;;24.30;52.70;;;;;;7639635;22;81689;-57
2022/10/15 01:14:47;;;;;;;9.18;7.88;;;24.30;52.70;;;;;;7616051;22;81637;-50
2022/10/15 01:17:48;;;;;;;9.38;7.47;;;24.30;52.70;;;;;;7638972;22;80179;-48
2022/10/15 01:20:48;;;;;;;8.95;7.50;;;24.30;52.70;;;;;;7641679;22;80996;-46
2022/10/15 01:23:49;;;;;;;10.60;7.22;;;24.30;52.60;;;;;;7639635;22;80466;-52
2022/10/15 01:26:49;;;;;;;10.13;7.60;;;24.30;52.60;;;;;;7642998;22;80461;-47
2022/10/15 01:29:52;;;;;;;10.07;7.60;;;24.30;52.60;;;;;;7612647;22;82094;-53
2022/10/15 01:32:54;;;;;;;10.00;7.82;;;24.20;52.50;;;;;;7613268;22;82311;-54
2022/10/15 01:35:55;;;;;;;12.63;7.68;;;24.20;52.50;;;;;;7641892;22;80537;-57
2022/10/15 01:38:56;;;;;;;11.80;8.13;;;24.30;52.60;;;;;;7613228;22;83654;-57
2022/10/15 01:41:56;;;;;;;10.27;7.90;;;24.30;52.50;;;;;;7616000;22;82811;-55
2022/10/15 01:44:57;;;;;;;9.05;7.50;;;24.30;52.50;;;;;;7612583;22;82824;-55
2022/10/15 01:48:07;;;;;;;9.18;7.30;;;24.20;52.40;;;;;;7611164;22;82186;-49
2022/10/15 01:51:08;;;;;;;11.05;7.63;;;24.30;53.10;;;;;;7613926;22;83080;-50
2022/10/15 01:54:09;;;;;;;9.52;7.43;;;24.30;52.50;;;;;;7614241;22;83044;-50
2022/10/15 01:57:09;;;;;;;9.43;8.05;;;24.20;52.60;;;;;;7614787;22;82876;-50
2022/10/15 02:00:10;;;;;;;10.32;6.90;;;24.20;52.70;;;;;;7614212;22;82924;-53
2022/10/15 02:03:14;;;;;;;10.13;6.32;;;24.20;52.80;;;;;;7634951;22;83045;-48
2022/10/15 02:06:14;;;;;;;9.45;6.95;;;24.20;52.90;;;;;;7678229;22;80526;-50
2022/10/15 02:09:15;;;;;;;9.60;7.18;;;24.20;53.00;;;;;;7647848;22;83083;-52
2022/10/15 02:12:15;;;;;;;8.80;6.78;;;24.20;53.00;;;;;;7677315;22;80222;-51
2022/10/15 02:15:17;;;;;;;11.07;7.03;;;24.20;53.00;;;;;;7652080;22;83264;-53
2022/10/15 02:18:17;;;;;;;10.02;7.40;;;24.20;52.90;;;;;;7651606;22;83162;-51
2022/10/15 02:21:18;;;;;;;8.98;6.32;;;24.20;53.00;;;;;;7653215;22;83181;-50
2022/10/15 02:24:18;;;;;;;10.05;7.00;;;24.20;53.00;;;;;;7655013;22;83284;-50
2022/10/15 02:27:19;;;;;;;8.35;7.38;;;24.20;53.00;;;;;;7679905;22;80219;-52
2022/10/15 02:30:20;;;;;;;9.45;7.10;;;24.30;53.10;;;;;;7679156;22;80367;-53
2022/10/15 02:33:20;;;;;;;10.10;6.97;;;24.20;53.00;;;;;;7653526;22;82453;-53
2022/10/15 02:36:21;;;;;;;9.32;7.47;;;24.20;53.00;;;;;;7653143;22;83295;-52
2022/10/15 02:39:25;;;;;;;11.25;7.88;;;24.20;53.00;;;;;;7677532;22;80792;-51
2022/10/15 02:42:25;;;;;;;8.57;7.13;;;24.20;53.00;;;;;;7652103;22;83305;-51
2022/10/15 02:45:26;;;;;;;9.93;7.15;;;24.20;53.00;;;;;;7680659;22;80341;-49
2022/10/15 02:48:27;;;;;;;10.10;7.65;;;24.20;53.00;;;;;;7654484;22;81915;-51
2022/10/15 02:51:27;;;;;;;8.77;7.15;;;24.20;53.00;;;;;;7679748;22;80234;-50
2022/10/15 02:54:28;;;;;;;9.30;7.80;;;24.30;53.00;;;;;;7651808;22;82799;-50
2022/10/15 02:57:28;;;;;;;10.90;7.30;;;24.30;53.00;;;;;;7681266;22;82032;-48
2022/10/15 03:00:30;;;;;;;9.00;7.32;;;24.20;52.90;;;;;;7654370;22;81747;-53
2022/10/15 03:03:31;;;;;;;9.48;7.90;;;24.20;53.00;;;;;;7679499;22;80079;-57
2022/10/15 03:06:32;;;;;;;9.93;7.45;;;24.20;53.00;;;;;;7650361;22;81177;-56
2022/10/15 03:09:33;;;;;;;9.95;7.75;;;24.20;53.00;;;;;;7654771;22;83703;-56
2022/10/15 03:12:36;;;;;;;10.13;7.70;;;24.20;53.10;;;;;;7649804;22;82938;-56
2022/10/15 03:15:38;;;;;;;9.07;7.97;;;24.20;53.10;;;;;;7652058;22;83211;-57
2022/10/15 03:18:39;;;;;;;9.13;8.00;;;24.30;53.20;;;;;;7652857;22;83359;-56
2022/10/15 03:21:40;;;;;;;9.98;8.15;;;24.30;53.20;;;;;;7677202;22;80576;-56
2022/10/15 03:24:45;;;;;;;12.07;8.20;;;24.20;53.20;;;;;;7654320;22;82195;-57
2022/10/15 03:27:46;;;;;;;12.02;8.43;;;24.20;53.20;;;;;;7677671;22;81163;-56
2022/10/15 03:30:57;;;;;;;8.50;7.38;;;24.30;53.20;;;;;;7678089;22;80327;-57
2022/10/15 03:33:58;;;;;;;9.23;7.20;;;24.30;53.30;;;;;;7678000;22;80521;-56
2022/10/15 03:37:00;;;;;;;10.13;7.80;;;24.30;53.30;;;;;;7653652;22;83091;-55
2022/10/15 03:40:01;;;;;;;10.73;7.93;;;24.20;53.20;;;;;;7652314;22;83555;-54
2022/10/15 03:43:02;;;;;;;11.02;7.40;;;24.20;53.30;;;;;;7652275;22;83103;-55
2022/10/15 03:46:02;;;;;;;10.15;8.02;;;24.20;53.30;;;;;;7678742;22;80213;-53
2022/10/15 03:49:03;;;;;;;8.18;7.10;;;24.20;53.40;;;;;;7651941;22;82672;-55
2022/10/15 03:52:04;;;;;;;11.82;6.97;;;24.20;53.20;;;;;;7654202;22;83318;-56
2022/10/15 03:55:05;;;;;;;11.05;7.72;;;24.20;53.20;;;;;;7649611;22;83492;-54
2022/10/15 03:58:05;;;;;;;8.50;7.18;;;24.30;53.20;;;;;;7677318;22;82897;-55
2022/10/15 04:01:06;;;;;;;8.32;6.63;;;24.30;53.20;;;;;;7649966;22;83133;-51
2022/10/15 04:04:07;;;;;;;10.32;7.10;;;24.30;53.10;;;;;;7654200;22;82620;-55
2022/10/15 04:07:07;;;;;;;8.52;6.88;;;24.30;53.00;;;;;;7650243;22;83392;-55
2022/10/15 04:10:08;;;;;;;8.30;6.85;;;24.30;53.20;;;;;;7653156;22;82896;-54
2022/10/15 04:13:12;;;;;;;8.48;7.22;;;24.30;53.00;;;;;;7651009;22;83135;-54
2022/10/15 04:16:14;;;;;;;7.93;6.20;;;24.30;53.00;;;;;;7650319;22;83145;-55
2022/10/15 04:19:15;;;;;;;9.77;7.05;;;24.30;53.10;;;;;;7645843;22;81568;-55
2022/10/15 04:22:18;;;;;;;9.40;7.47;;;24.30;53.10;;;;;;7652610;22;83089;-55
2022/10/15 04:25:22;;;;;;;9.07;7.18;;;24.30;52.80;;;;;;7649926;22;82013;-56
2022/10/15 04:28:23;;;;;;;8.98;7.00;;;24.40;52.80;;;;;;7678119;22;80215;-55
2022/10/15 04:31:23;;;;;;;7.47;6.68;;;24.30;52.90;;;;;;7678781;22;80111;-54
2022/10/15 04:34:24;;;;;;;8.07;6.95;;;24.40;52.80;;;;;;7651688;22;81308;-61
2022/10/15 04:37:25;;;;;;;9.52;7.40;;;24.40;52.80;;;;;;7652426;22;83514;-62
2022/10/15 04:40:27;;;;;;;10.13;7.47;;;24.40;52.90;;;;;;7652350;22;81654;-63
2022/10/15 04:43:27;;;;;;;9.35;7.38;;;24.40;52.80;;;;;;7654843;22;80417;-63
2022/10/15 04:46:33;;;;;;;10.00;7.53;;;24.40;52.70;;;;;;7652250;22;81395;-63
2022/10/15 04:49:41;;;;;;;11.45;8.38;;;24.40;52.60;;;;;;7649732;22;82586;-63
2022/10/15 04:52:58;;;;;;;8.77;7.32;;;24.40;52.50;;;;;;7652538;22;82800;-63
2022/10/15 04:56:00;;;;;;;11.48;7.30;;;24.40;52.40;;;;;;7644382;22;83228;-64
2022/10/15 04:59:01;;;;;;;9.27;7.38;;;24.40;52.40;;;;;;7646958;22;83170;-64
2022/10/15 05:02:05;;;;;;;9.05;7.07;;;24.40;52.40;;;;;;7650414;22;83002;-62
2022/10/15 05:05:07;;;;;;;9.90;7.75;;;24.40;52.40;;;;;;7654303;22;82428;-60
2022/10/15 05:08:10;;;;;;;9.38;7.55;;;24.40;52.30;;;;;;7651346;22;87111;-62
2022/10/15 05:11:37;;;;;;;;;;;24.40;52.70;;;;;;7653549;22;80841;-61
2022/10/15 05:14:43;;;;;;;11.40;8.15;;;24.40;52.50;;;;;;7689713;22;80584;-59
2022/10/15 05:17:51;;;;;;;9.90;7.68;;;24.40;52.70;;;;;;7677465;22;80910;-59
2022/10/15 05:20:51;;;;;;;9.30;7.50;;;24.40;52.80;;;;;;7651198;22;83129;-66
2022/10/15 05:23:53;;;;;;;10.82;7.45;;;24.40;53.00;;;;;;7653405;22;82852;-59
2022/10/15 05:27:14;;;;;;;9.23;7.93;;;24.40;52.60;;;;;;7674111;22;80247;-62
2022/10/15 05:30:15;;;;;;;9.45;7.20;;;24.40;52.80;;;;;;7650541;22;81665;-65
2022/10/15 05:33:22;;;;;;;10.48;7.70;;;24.40;52.80;;;;;;7651657;22;82889;-60
2022/10/15 05:36:22;;;;;;;11.27;8.10;;;24.40;53.00;;;;;;7672194;22;80061;-59
2022/10/15 05:39:28;;;;;;;;;;;24.40;52.90;;;;;;7673758;22;81395;-60
2022/10/15 05:42:29;;;;;;;12.45;7.93;;;24.40;52.80;;;;;;7652296;22;83183;-60
2022/10/15 05:45:32;;;;;;;11.88;7.60;;;24.40;52.90;;;;;;7646355;22;80614;-60
2022/10/15 05:48:37;;;;;;;12.85;7.90;;;24.40;53.10;;;;;;7644084;22;83706;-63
2022/10/15 05:51:38;;;;;;;11.63;7.15;;;24.40;53.50;;;;;;7673815;22;80222;-60
2022/10/15 05:54:44;;;;;;;13.55;8.57;;;24.50;53.80;;;;;;7650752;22;80606;-60
2022/10/15 05:57:44;;;;;;;10.45;7.47;;;24.50;54.40;;;;;;7677318;22;80925;-59
2022/10/15 06:00:45;;;;;;;9.15;7.15;;;24.50;54.70;;;;;;7666752;22;81133;-60
2022/10/15 06:03:45;;;;;;;10.82;7.15;;;24.60;54.80;;;;;;7670463;22;80591;-61
2022/10/15 06:06:46;;;;;;;15.77;7.03;;;24.60;55.20;;;;;;7669712;22;80281;-60
2022/10/15 06:09:46;;;;;;;12.48;7.30;;;24.60;54.80;;;;;;7670987;22;80955;-59
2022/10/15 06:12:47;;;;;;;10.50;7.20;;;24.60;54.70;;;;;;7674435;22;80578;-60
2022/10/15 06:15:48;;;;;;;12.82;7.70;;;24.60;54.60;;;;;;7679153;22;80620;-61
2022/10/15 06:18:48;;;;;;;8.00;6.60;;;24.60;55.00;;;;;;7680139;22;79932;-65
2022/10/15 06:21:49;;;;;;;11.05;6.63;;;24.60;55.40;;;;;;7682804;22;81878;-63
2022/10/15 06:24:49;;;;;;;18.38;7.65;;;24.60;55.10;;;;;;7680967;22;80388;-63
2022/10/15 06:27:50;;;;;;;12.70;8.30;;;24.60;55.00;;;;;;7678144;22;80457;-65
2022/10/15 06:30:50;;;;;;;11.90;7.35;;;24.60;55.00;;;;;;7679440;22;81461;-63
2022/10/15 06:33:51;;;;;;;10.80;8.23;;;24.70;55.20;;;;;;7679524;22;80398;-61
2022/10/15 06:36:51;;;;;;;11.57;8.50;;;24.70;55.10;;;;;;7665436;22;80244;-60
2022/10/15 06:39:52;;;;;;;11.00;8.10;;;24.60;55.40;;;;;;7674819;22;80830;-61
2022/10/15 06:42:52;;;;;;;10.80;7.82;;;24.70;55.50;;;;;;7676804;22;80921;-60
2022/10/15 06:45:53;;;;;;;13.70;8.38;;;24.70;55.60;;;;;;7673252;22;80938;-59
2022/10/15 06:48:54;;;;;;;17.77;9.45;;;24.70;55.80;;;;;;7680336;22;80549;-59
2022/10/15 06:51:55;;;;;;;11.82;8.15;;;24.70;55.80;;;;;;7674924;22;80176;-61
2022/10/15 06:54:55;;;;;;;13.80;8.50;;;24.80;55.80;;;;;;7671524;22;80512;-61
2022/10/15 06:57:56;;;;;;;14.40;8.98;;;24.80;55.70;;;;;;7673162;22;80637;-59
2022/10/15 07:01:00;;;;;;;12.50;8.00;;;24.80;55.60;;;;;;7675425;22;80224;-58
2022/10/15 07:04:00;;;;;;;13.90;8.65;;;24.80;55.40;;;;;;7673084;22;80636;-59
2022/10/15 07:07:01;;;;;;;15.13;9.07;;;24.90;55.30;;;;;;7674318;22;80963;-57
2022/10/15 07:10:03;;;;;;;12.60;8.00;;;24.90;55.10;;;;;;7672892;22;80359;-53
2022/10/15 07:13:03;;;;;;;14.02;9.10;;;24.90;55.10;;;;;;7675648;22;81271;-52
2022/10/15 07:16:04;;;;;;;18.30;9.02;;;24.80;54.90;;;;;;7674478;22;81946;-54
2022/10/15 07:19:05;;;;;;;12.63;9.00;;;24.80;55.00;;;;;;7678138;22;80217;-59
2022/10/15 07:22:06;;;;;;;20.20;9.65;;;24.80;55.00;;;;;;7669492;22;81040;-59
2022/10/15 07:25:08;;;;;;;13.93;9.10;;;24.80;54.90;;;;;;7657853;22;80188;-58
2022/10/15 07:28:09;;;;;;;13.93;9.15;;;24.80;54.60;;;;;;7656313;22;80879;-56
2022/10/15 07:31:10;;;;;;;12.40;8.85;;;24.80;54.90;;;;;;7657762;22;80967;-57
2022/10/15 07:34:10;;;;;;;23.40;9.77;;;24.80;54.80;;;;;;7656099;22;81717;-58
2022/10/15 07:37:11;;;;;;;14.85;9.48;;;24.90;55.00;;;;;;7658729;22;81062;-55
2022/10/15 07:40:11;;;;;;;17.15;11.25;;;24.90;54.30;;;;;;7655242;22;80608;-58
2022/10/15 07:43:12;;;;;;;29.95;19.55;;;24.80;54.70;;;;;;7649753;22;83261;-57
2022/10/15 07:46:14;;;;;;;41.53;23.05;;;24.80;54.70;;;;;;7647973;22;83338;-56
2022/10/15 07:49:15;;;;;;;37.05;21.58;;;24.90;54.70;;;;;;7648896;22;83418;-58
2022/10/15 07:52:15;;;;;;;33.28;20.85;;;24.90;54.60;;;;;;7646071;22;83685;-57
2022/10/15 07:55:16;;;;;;;36.28;22.00;;;24.90;54.60;;;;;;7654641;22;83669;-48
2022/10/15 07:58:16;;;;;;;42.97;24.75;;;24.90;54.80;;;;;;7647253;22;83929;-59
2022/10/15 08:01:17;;;;;;;53.17;31.23;;;24.90;55.00;;;;;;7649934;22;84023;-59
2022/10/15 08:04:19;;;;;;;48.42;29.40;;;24.90;55.00;;;;;;7648022;22;83289;-59
2022/10/15 08:07:22;;;;;;;51.40;31.33;;;25.00;54.90;;;;;;7648794;22;84875;-59
2022/10/15 08:10:23;;;;;;;52.97;30.35;;;25.00;54.80;;;;;;7649208;22;83468;-59
2022/10/15 08:13:24;;;;;;;47.47;29.33;;;25.10;54.40;;;;;;7654918;22;83841;-59
2022/10/15 08:16:28;;;;;;;49.08;30.15;;;25.10;54.10;;;;;;7658258;22;83606;-60
2022/10/15 08:19:31;;;;;;;53.63;30.92;;;25.10;54.00;;;;;;7656396;22;84455;-65
2022/10/15 08:22:31;;;;;;;29.63;18.85;;;25.10;54.00;;;;;;7670621;22;84895;-62
2022/10/15 08:25:32;;;;;;;26.17;16.65;;;24.90;49.40;;;;;;7665768;22;84571;-60
2022/10/15 08:28:33;;;;;;;21.95;13.93;;;24.40;50.60;;;;;;7667487;22;83168;-65
2022/10/15 08:31:34;;;;;;;18.88;14.52;;;24.20;49.30;;;;;;7673271;22;89072;-60
2022/10/15 08:34:34;;;;;;;18.88;13.52;;;23.80;50.30;;;;;;7672973;22;83658;-59
2022/10/15 08:37:35;;;;;;;19.75;13.25;;;23.90;50.10;;;;;;7669301;22;85177;-60
2022/10/15 08:40:35;;;;;;;18.90;12.00;;;24.10;49.60;;;;;;7673310;22;82988;-61
2022/10/15 08:43:38;;;;;;;18.63;12.38;;;24.30;49.40;;;;;;7671556;22;83184;-60
2022/10/15 08:46:47;;;;;;;19.63;12.57;;;24.10;49.90;;;;;;7675024;22;83438;-60
2022/10/15 08:49:48;;;;;;;15.80;11.80;;;24.40;49.60;;;;;;7672853;22;82982;-60
2022/10/15 08:52:48;;;;;;;22.70;11.88;;;24.40;49.60;;;;;;7674130;22;85115;-57
2022/10/15 08:55:49;;;;;;;17.23;11.75;;;24.60;48.50;;;;;;7673505;22;84623;-55
2022/10/15 08:58:49;;;;;;;14.65;11.00;;;24.70;48.00;;;;;;7674725;22;83533;-56
2022/10/15 09:01:50;;;;;;;17.95;12.75;;;24.80;47.20;;;;;;7673416;22;83557;-56
2022/10/15 09:04:50;;;;;;;14.32;10.70;;;24.80;46.60;;;;;;7677565;22;84211;-54
2022/10/15 09:07:51;;;;;;;14.55;11.23;;;24.70;46.80;;;;;;7673638;22;84667;-56
2022/10/15 09:10:52;;;;;;;16.20;10.63;;;24.60;46.90;;;;;;7673973;22;82861;-56
2022/10/15 09:13:52;;;;;;;17.05;10.18;;;24.60;46.20;;;;;;7674734;22;84584;-54
2022/10/15 09:16:56;;;;;;;19.17;11.48;;;24.50;46.60;;;;;;7644560;22;85541;-56
2022/10/15 09:19:57;;;;;;;14.85;10.38;;;24.70;46.10;;;;;;7675595;22;83820;-56
2022/10/15 09:22:57;;;;;;;15.48;10.15;;;24.70;46.10;;;;;;7673632;22;83542;-56
2022/10/15 09:25:58;;;;;;;18.33;10.07;;;24.80;45.60;;;;;;7673232;22;84022;-53
2022/10/15 09:28:59;;;;;;;19.70;10.90;;;24.60;45.30;;;;;;7674516;22;84400;-57
2022/10/15 09:31:59;;;;;;;20.02;10.38;;;24.50;44.90;;;;;;7674895;22;83065;-56
2022/10/15 09:35:03;;;;;;;15.00;10.60;;;23.90;44.80;;;;;;7675503;22;84090;-55
2022/10/15 09:38:04;;;;;;;11.13;9.57;;;23.70;45.60;;;;;;7671539;22;84493;-59
2022/10/15 09:41:05;;;;;;;15.07;10.25;;;24.10;45.40;;;;;;7672652;22;82704;-56
2022/10/15 09:44:10;;;;;;;12.35;9.35;;;24.30;45.30;;;;;;7669867;22;83332;-59
2022/10/15 09:47:11;;;;;;;;;;;24.20;44.70;;;;;;7675850;22;87132;-57
2022/10/15 09:50:12;;;;;;;13.13;9.82;;;24.30;45.00;;;;;;7686189;22;80227;-55
2022/10/15 09:53:13;;;;;;;12.10;10.02;;;24.40;44.80;;;;;;7677509;22;79934;-55
2022/10/15 09:56:13;;;;;;;16.75;10.07;;;24.20;44.50;;;;;;7674207;22;83185;-60
2022/10/15 09:59:14;;;;;;;15.13;10.63;;;24.10;44.50;;;;;;7673951;22;82844;-59
2022/10/15 10:02:14;;;;;;;13.80;10.40;;;24.30;45.00;;;;;;7672456;22;83750;-58
2022/10/15 10:05:15;;;;;;;14.93;9.85;;;24.30;45.00;;;;;;7669401;22;83495;-64
2022/10/15 10:08:17;;;;;;;14.45;10.20;;;24.30;44.60;;;;;;7672930;22;83993;-64
2022/10/15 10:11:18;;;;;;;13.55;9.70;;;24.50;44.70;;;;;;7670349;22;82858;-64
2022/10/15 10:14:18;;;;;;;12.00;9.63;;;24.30;44.70;;;;;;7672878;22;82885;-63
2022/10/15 10:17:22;;;;;;;13.52;9.50;;;24.30;44.80;;;;;;7673914;22;80324;-64
2022/10/15 10:20:22;;;;;;;14.63;10.00;;;24.40;44.60;;;;;;7676162;22;80554;-61
2022/10/15 10:23:23;;;;;;;11.48;9.35;;;24.10;44.60;;;;;;7675151;22;82707;-66
2022/10/15 10:26:23;;;;;;;15.88;9.82;;;23.80;44.90;;;;;;7652028;22;85166;-66
2022/10/15 10:29:24;;;;;;;13.35;9.05;;;23.70;45.30;;;;;;7677276;22;81664;-60
2022/10/15 10:32:25;;;;;;;15.77;9.30;;;23.50;45.30;;;;;;7679088;22;81432;-70
2022/10/15 10:35:26;;;;;;;11.93;8.55;;;23.40;45.80;;;;;;7678955;22;80440;-61
2022/10/15 10:38:26;;;;;;;13.95;8.93;;;23.60;45.70;;;;;;7667284;22;81915;-63
2022/10/15 10:41:27;;;;;;;13.68;8.43;;;23.00;46.00;;;;;;7651926;22;81423;-57
2022/10/15 10:44:27;;;;;;;13.25;8.77;;;22.80;46.70;;;;;;7675070;22;80422;-56
2022/10/15 10:47:28;;;;;;;13.00;8.27;;;23.00;47.00;;;;;;7678534;22;80512;-54
2022/10/15 10:50:29;;;;;;;19.58;8.48;;;23.30;47.00;;;;;;7679163;22;80037;-58
2022/10/15 10:53:29;;;;;;;10.32;8.77;;;23.50;46.20;;;;;;7681894;22;80273;-56
2022/10/15 10:56:30;;;;;;;11.95;8.63;;;22.90;46.90;;;;;;7678103;22;80812;-55
2022/10/15 10:59:30;;;;;;;12.93;8.32;;;22.60;47.60;;;;;;7677621;22;81067;-56
2022/10/15 11:02:31;;;;;;;16.23;8.45;;;22.40;47.80;;;;;;7679368;22;80303;-57
2022/10/15 11:05:31;;;;;;;11.10;8.02;;;22.30;48.30;;;;;;7681079;22;80245;-57
2022/10/15 11:08:32;;;;;;;11.70;8.18;;;22.10;48.80;;;;;;7675531;22;80172;-56
2022/10/15 11:11:32;;;;;;;10.95;8.60;;;22.20;48.90;;;;;;7679997;22;82002;-56
2022/10/15 11:14:33;;;;;;;10.57;7.70;;;22.00;48.70;;;;;;7680979;22;80114;-56
2022/10/15 11:17:33;;;;;;;9.98;8.20;;;21.90;48.60;;;;;;7677443;22;80963;-55
2022/10/15 11:20:34;;;;;;;8.82;7.50;;;21.80;48.70;;;;;;7675327;22;80387;-57
2022/10/15 11:23:34;;;;;;;12.55;8.90;;;21.80;49.00;;;;;;7674965;22;80158;-57
2022/10/15 11:26:35;;;;;;;14.63;8.27;;;21.80;48.70;;;;;;7677734;22;80726;-56
2022/10/15 11:29:35;;;;;;;12.35;7.75;;;21.70;49.00;;;;;;7679113;22;81273;-55
2022/10/15 11:32:36;;;;;;;14.43;8.43;;;21.90;49.10;;;;;;7680074;22;80449;-60
2022/10/15 11:35:36;;;;;;;11.02;8.55;;;21.80;48.90;;;;;;7679676;22;80548;-56
2022/10/15 11:38:37;;;;;;;10.13;6.75;;;21.70;48.90;;;;;;7679782;22;80627;-56
2022/10/15 11:41:37;;;;;;;13.98;8.68;;;21.90;48.80;;;;;;7680406;22;80583;-55
2022/10/15 11:44:38;;;;;;;17.15;8.15;;;22.00;48.60;;;;;;7652991;22;80956;-55
2022/10/15 11:47:40;;;;;;;13.52;7.68;;;21.90;48.30;;;;;;7666197;22;80852;-56
2022/10/15 11:50:41;;;;;;;14.27;8.18;;;21.80;48.10;;;;;;7668853;22;81624;-54
2022/10/15 11:53:41;;;;;;;14.32;7.88;;;21.90;47.90;;;;;;7670401;22;80353;-56
2022/10/15 11:56:42;;;;;;;13.32;9.07;;;22.00;47.90;;;;;;7676506;22;80326;-55
2022/10/15 11:59:42;;;;;;;11.70;7.90;;;22.10;47.90;;;;;;7677827;22;81381;-54
2022/10/15 12:02:43;;;;;;;12.90;8.52;;;22.10;47.70;;;;;;7678145;22;80335;-56
2022/10/15 12:05:43;;;;;;;12.43;8.10;;;22.30;47.80;;;;;;7673638;22;80544;-55
2022/10/15 12:08:44;;;;;;;16.45;7.97;;;22.70;47.60;;;;;;7656451;22;81915;-55
2022/10/15 12:11:44;;;;;;;11.43;8.30;;;22.90;47.60;;;;;;7644671;22;80705;-55
2022/10/15 12:14:46;;;;;;;11.90;8.20;;;23.10;46.60;;;;;;7670000;22;81828;-61
2022/10/15 12:17:47;;;;;;;12.23;7.95;;;23.00;46.90;;;;;;7663003;22;81452;-60
2022/10/15 12:20:47;;;;;;;12.68;7.97;;;23.20;47.10;;;;;;7671216;22;80089;-59
2022/10/15 12:23:48;;;;;;;14.10;7.80;;;23.40;46.90;;;;;;7673016;22;81132;-59
2022/10/15 12:26:48;;;;;;;14.73;8.43;;;23.40;46.60;;;;;;7670219;22;80810;-60
2022/10/15 12:29:49;;;;;;;10.27;8.07;;;23.50;46.40;;;;;;7674034;22;81676;-59
2022/10/15 12:32:49;;;;;;;10.02;7.70;;;23.50;46.40;;;;;;7671833;22;81260;-61
2022/10/15 12:35:50;;;;;;;10.77;7.70;;;23.60;46.70;;;;;;7677656;22;81492;-56
2022/10/15 12:38:52;;;;;;;12.65;7.20;;;23.60;46.20;;;;;;7675455;22;80354;-58
2022/10/15 12:41:52;;;;;;;10.07;6.70;;;23.50;46.10;;;;;;7673579;22;80459;-59
2022/10/15 12:44:53;;;;;;;15.20;6.88;;;23.60;46.10;;;;;;7673602;22;80419;-59
2022/10/15 12:47:53;;;;;;;9.73;7.40;;;23.70;45.90;;;;;;7681388;22;80443;-58
2022/10/15 12:50:54;;;;;;;9.43;7.22;;;23.70;46.00;;;;;;7675258;22;80878;-61
2022/10/15 12:53:59;;;;;;;12.23;7.47;;;23.70;45.50;;;;;;7672925;22;82042;-58
2022/10/15 12:56:59;;;;;;;15.00;7.30;;;23.70;45.20;;;;;;7674300;22;80335;-62
2022/10/15 13:00:00;;;;;;;11.38;7.60;;;23.60;46.00;;;;;;7677024;22;80286;-60
2022/10/15 13:03:03;;;;;;;10.30;7.18;;;23.00;44.60;;;;;;7679610;22;80951;-58
2022/10/15 13:06:03;;;;;;;10.95;8.15;;;22.60;45.30;;;;;;7677734;22;80492;-59
2022/10/15 13:09:11;;;;;;;11.13;7.22;;;22.40;45.40;;;;;;7680079;22;81429;-58
2022/10/15 13:12:11;;;;;;;9.30;6.68;;;22.30;45.50;;;;;;7678103;22;80221;-59
2022/10/15 13:15:12;;;;;;;12.77;6.70;;;22.20;45.80;;;;;;7678452;22;81495;-58
2022/10/15 13:18:12;;;;;;;11.48;6.30;;;22.30;45.90;;;;;;7677852;22;80485;-60
2022/10/15 13:21:13;;;;;;;9.80;6.78;;;22.10;45.10;;;;;;7666803;22;80785;-58
2022/10/15 13:24:13;;;;;;;8.55;6.78;;;22.10;45.60;;;;;;7665952;22;80554;-60
2022/10/15 13:27:14;;;;;;;116.18;50.90;;;22.10;45.50;;;;;;7657297;22;81699;-58
2022/10/15 13:30:14;;;;;;;110.47;52.80;;;22.00;45.40;;;;;;7645503;22;82704;-54
2022/10/15 13:33:15;;;;;;;146.98;63.00;;;22.10;45.40;;;;;;7659664;22;84239;-55
2022/10/15 13:36:15;;;;;;;165.15;69.68;;;22.10;45.70;;;;;;7649924;22;83354;-56
2022/10/15 13:39:16;;;;;;;264.63;106.72;;;22.10;45.10;;;;;;7650853;22;83672;-58
2022/10/15 13:42:17;;;;;;;221.25;97.95;;;22.10;45.60;;;;;;7645266;22;86314;-58
2022/10/15 13:45:17;;;;;;;88.43;32.72;;;22.30;45.60;;;;;;7651374;22;85880;-58
2022/10/15 13:48:18;;;;;;;35.20;16.77;;;22.00;45.10;;;;;;7660956;22;83068;-59
2022/10/15 13:51:18;;;;;;;21.20;12.10;;;21.90;45.30;;;;;;7664161;22;83024;-59
2022/10/15 13:54:19;;;;;;;15.68;9.23;;;22.00;45.40;;;;;;7664204;22;84092;-58
2022/10/15 13:57:19;;;;;;;10.85;7.57;;;22.20;45.10;;;;;;7666829;22;83868;-59
2022/10/15 14:00:20;;;;;;;10.27;7.15;;;22.00;44.60;;;;;;7666282;22;81117;-58
2022/10/15 14:03:21;;;;;;;12.68;7.38;;;22.00;45.10;;;;;;7680133;22;80628;-57
2022/10/15 14:06:22;;;;;;;19.52;6.82;;;22.20;45.20;;;;;;7676057;22;80746;-57
2022/10/15 14:09:23;;;;;;;11.02;6.93;;;22.50;45.10;;;;;;7678385;22;80493;-58
2022/10/15 14:12:24;;;;;;;13.55;6.50;;;22.80;44.90;;;;;;7676417;22;80828;-58
2022/10/15 14:15:26;;;;;;;10.30;6.82;;;23.00;44.80;;;;;;7649304;22;80786;-55
2022/10/15 14:18:27;;;;;;;12.13;6.72;;;23.20;44.70;;;;;;7674959;22;80972;-55
2022/10/15 14:21:31;;;;;;;9.15;6.18;;;23.30;44.60;;;;;;7679659;22;80843;-57
2022/10/15 14:24:32;;;;;;;17.23;7.18;;;23.40;44.50;;;;;;7679946;22;79999;-57
2022/10/15 14:27:32;;;;;;;9.05;7.13;;;23.50;44.50;;;;;;7666703;22;81552;-55
2022/10/15 14:30:34;;;;;;;10.80;7.30;;;23.60;44.90;;;;;;7676903;22;81538;-58
2022/10/15 14:33:35;;;;;;;12.75;6.65;;;23.60;45.20;;;;;;7675903;22;80375;-58
2022/10/15 14:36:35;;;;;;;10.52;7.18;;;23.70;45.30;;;;;;7677520;22;80384;-55
2022/10/15 14:39:37;;;;;;;11.27;6.45;;;23.70;45.50;;;;;;7676635;22;80340;-48
2022/10/15 14:42:38;;;;;;;12.05;7.35;;;23.80;45.50;;;;;;7677130;22;80497;-49
2022/10/15 14:45:39;;;;;;;13.30;6.72;;;23.80;45.90;;;;;;7676142;22;80364;-53
2022/10/15 14:48:39;;;;;;;9.88;6.60;;;23.80;46.00;;;;;;7678105;22;81460;-49
2022/10/15 14:51:40;;;;;;;13.45;6.90;;;23.80;46.50;;;;;;7677477;22;80699;-52
2022/10/15 14:54:40;;;;;;;11.43;7.10;;;23.80;46.00;;;;;;7677911;22;80134;-51
2022/10/15 14:57:41;;;;;;;13.88;7.45;;;23.80;45.80;;;;;;7680380;22;80333;-50
2022/10/15 15:00:41;;;;;;;17.23;7.20;;;23.80;46.00;;;;;;7679727;22;80428;-58
2022/10/15 15:03:42;;;;;;;11.80;6.97;;;23.80;46.00;;;;;;7678288;22;80715;-57
2022/10/15 15:06:42;;;;;;;10.98;7.05;;;23.80;46.20;;;;;;7680237;22;79904;-57
2022/10/15 15:09:43;;;;;;;11.00;6.97;;;23.90;46.40;;;;;;7677889;22;81043;-57
2022/10/15 15:12:43;;;;;;;10.50;6.45;;;23.90;46.50;;;;;;7680724;22;81034;-57
2022/10/15 15:15:44;;;;;;;11.10;6.63;;;23.90;46.60;;;;;;7678717;22;80547;-57
2022/10/15 15:18:47;;;;;;;12.25;6.90;;;23.90;46.70;;;;;;7679523;22;80796;-59
2022/10/15 15:21:47;;;;;;;12.30;7.00;;;23.90;47.10;;;;;;7677798;22;80400;-59
2022/10/15 15:24:48;;;;;;;11.98;6.57;;;23.90;47.70;;;;;;7681643;22;80314;-60
2022/10/15 15:27:48;;;;;;;16.02;6.95;;;23.90;47.30;;;;;;7675366;22;81534;-60
2022/10/15 15:30:49;;;;;;;12.23;6.78;;;23.90;47.50;;;;;;7672132;22;80191;-64
2022/10/15 15:33:49;;;;;;;14.02;7.25;;;23.90;47.10;;;;;;7672265;22;80579;-64